Time,TemperatureF,DewpointF,PressureIn,WindDirection,WindDirectionDegrees,WindSpeedMPH,WindSpeedGustMPH,Humidity,HourlyPrecipIn,Conditions,Clouds,dailyrainin,SoftwareType,DateUTC
2013-06-08 00:01:00,67.6,58.2,29.74,SSE,153,6.9,6.9,72,0.00,CLR,,0.00,WeatherDisplay:10.37,2013-06-08 07:01:00,
2013-06-08 00:06:00,67.1,58.2,29.74,South,184,5.0,5.0,73,0.00,CLR,,0.00,WeatherDisplay:10.37,2013-06-08 07:06:00,
2013-06-08 00:11:00,66.7,58.1,29.74,SSE,159,6.9,6.9,74,0.00,CLR,,0.00,WeatherDisplay:10.37,2013-06-08 07:11:00,
2013-06-08 00:16:00,66.2,58.0,29.74,SSW,201,4.6,4.6,75,0.00,CLR,,0.00,WeatherDisplay:10.37,2013-06-08 07:16:00,
2013-06-08 00:21:00,65.7,57.9,29.74,SW,215,6.0,6.0,76,0.00,CLR,,0.00,WeatherDisplay:10.37,2013-06-08 07:21:00,
2013-06-08 00:26:00,65.2,57.8,29.74,South,191,3.5,3.5,77,0.00,CLR,,0.00,WeatherDisplay:10.37,2013-06-08 07:26:00,
2013-06-08 00:31:00,64.9,57.9,29.73,SSE,155,5.8,5.8,78,0.00,CLR,,0.00,WeatherDisplay:10.37,2013-06-08 07:31:00,
2013-06-08 00:36:00,64.6,57.6,29.73,South,172,5.8,5.8,78,0.00,CLR,,0.00,WeatherDisplay:10.37,2013-06-08 07:36:00,
2013-06-08 00:41:00,64.3,57.6,29.74,SSE,163,5.0,5.0,79,0.00,CLR,,0.00,WeatherDisplay:10.37,2013-06-08 07:41:00,
2013-06-08 00:46:00,64.1,57.5,29.73,SSW,197,4.6,4.6,79,0.00,CLR,,0.00,WeatherDisplay:10.37,2013-06-08 07:46:00,
2013-06-08 00:51:00,64.0,57.7,29.73,South,169,5.0,5.0,80,0.00,CLR,,0.00,WeatherDisplay:10.37,2013-06-08 07:51:00,
2013-06-08 00:57:00,63.8,57.5,29.74,SSE,150,3.5,3.5,80,0.00,CLR,,0.00,WeatherDisplay:10.37,2013-06-08 07:57:00,
2013-06-08 01:02:00,63.6,57.7,29.74,SSE,154,3.5,3.5,81,0.00,CLR,,0.00,WeatherDisplay:10.37,2013-06-08 08:02:00,
2013-06-08 01:07:00,63.4,57.5,29.73,SSE,168,3.5,3.5,81,0.00,CLR,,0.00,WeatherDisplay:10.37,2013-06-08 08:07:00,
2013-06-08 01:12:00,63.2,57.3,29.73,SSE,159,2.3,2.3,81,0.00,CLR,,0.00,WeatherDisplay:10.37,2013-06-08 08:12:00,
2013-06-08 01:17:00,63.1,57.5,29.74,South,190,3.5,3.5,82,0.00,CLR,,0.00,WeatherDisplay:10.37,2013-06-08 08:17:00,
2013-06-08 01:22:00,63.0,57.4,29.73,SW,222,1.1,1.1,82,0.00,CLR,,0.00,WeatherDisplay:10.37,2013-06-08 08:22:00,
2013-06-08 01:27:00,62.9,57.3,29.73,SW,218,1.1,1.1,82,0.00,CLR,,0.00,WeatherDisplay:10.37,2013-06-08 08:27:00,
2013-06-08 01:32:00,62.9,57.3,29.73,SSW,210,1.1,1.1,82,0.00,CLR,,0.00,WeatherDisplay:10.37,2013-06-08 08:32:00,
2013-06-08 01:37:00,62.8,57.2,29.73,SSW,210,1.1,1.1,82,0.00,CLR,,0.00,WeatherDisplay:10.37,2013-06-08 08:37:00,
2013-06-08 01:42:00,62.6,57.0,29.73,SSW,211,1.1,1.1,82,0.00,CLR,,0.00,WeatherDisplay:10.37,2013-06-08 08:42:00,
2013-06-08 01:47:00,62.5,57.3,29.74,SW,232,1.1,1.1,83,0.00,CLR,,0.00,WeatherDisplay:10.37,2013-06-08 08:47:00,
2013-06-08 01:52:00,62.4,57.2,29.73,SW,235,1.1,1.1,83,0.00,CLR,,0.00,WeatherDisplay:10.37,2013-06-08 08:52:00,
2013-06-08 01:57:00,62.3,57.1,29.73,SSW,208,1.1,1.1,83,0.00,CLR,,0.00,WeatherDisplay:10.37,2013-06-08 08:57:00,
2013-06-08 02:02:00,62.1,56.9,29.73,SW,236,1.1,1.1,83,0.00,CLR,,0.00,WeatherDisplay:10.37,2013-06-08 09:02:00,
2013-06-08 02:07:00,62.0,56.8,29.73,SW,236,0.0,0.0,83,0.00,CLR,,0.00,WeatherDisplay:10.37,2013-06-08 09:07:00,
2013-06-08 02:12:00,61.8,56.9,29.73,SW,225,2.3,2.3,84,0.00,CLR,,0.00,WeatherDisplay:10.37,2013-06-08 09:12:00,
2013-06-08 02:17:00,61.8,56.9,29.73,WSW,240,1.1,1.1,84,0.00,CLR,,0.00,WeatherDisplay:10.37,2013-06-08 09:17:00,
2013-06-08 02:22:00,61.7,56.8,29.73,WSW,240,1.0,1.0,84,0.00,CLR,,0.00,WeatherDisplay:10.37,2013-06-08 09:22:00,
2013-06-08 02:27:00,61.6,56.4,29.74,WSW,240,0.0,0.0,83,0.00,CLR,,0.00,WeatherDisplay:10.37,2013-06-08 09:27:00,
2013-06-08 02:32:00,60.9,56.0,29.74,WSW,240,1.1,1.1,84,0.00,CLR,,0.00,WeatherDisplay:10.37,2013-06-08 09:32:00,
2013-06-08 02:37:00,60.5,56.3,29.74,WSW,240,0.0,0.0,86,0.00,CLR,,0.00,WeatherDisplay:10.37,2013-06-08 09:37:00,
2013-06-08 02:42:00,60.4,56.2,29.74,WSW,240,1.1,1.1,86,0.00,CLR,,0.00,WeatherDisplay:10.37,2013-06-08 09:42:00,
2013-06-08 02:47:00,60.3,56.1,29.73,WSW,241,1.1,1.1,86,0.00,CLR,,0.00,WeatherDisplay:10.37,2013-06-08 09:47:00,
2013-06-08 02:52:00,60.3,55.8,29.73,West,276,1.1,1.1,85,0.00,CLR,,0.00,WeatherDisplay:10.37,2013-06-08 09:52:00,
2013-06-08 02:57:00,59.9,55.4,29.73,NNW,338,2.3,2.3,85,0.00,CLR,,0.00,WeatherDisplay:10.37,2013-06-08 09:57:00,
2013-06-08 03:02:00,59.7,55.5,29.73,NNW,338,1.1,1.1,86,0.00,CLR,,0.00,WeatherDisplay:10.37,2013-06-08 10:02:00,
2013-06-08 03:07:00,59.3,54.8,29.73,NNW,338,1.1,1.1,85,0.00,CLR,,0.00,WeatherDisplay:10.37,2013-06-08 10:07:00,
2013-06-08 03:12:00,59.1,55.2,29.73,NNW,338,0.0,0.0,87,0.00,CLR,,0.00,WeatherDisplay:10.37,2013-06-08 10:12:00,
2013-06-08 03:17:00,59.2,55.3,29.73,NNW,338,1.1,1.1,87,0.00,CLR,,0.00,WeatherDisplay:10.37,2013-06-08 10:17:00,
2013-06-08 03:22:00,59.3,55.4,29.73,NNW,339,0.0,0.0,87,0.00,CLR,,0.00,WeatherDisplay:10.37,2013-06-08 10:22:00,
2013-06-08 03:27:00,59.3,55.7,29.73,NNW,339,0.0,0.0,88,0.00,CLR,,0.00,WeatherDisplay:10.37,2013-06-08 10:27:00,
2013-06-08 03:32:00,59.3,55.7,29.73,NNW,338,0.0,0.0,88,0.00,CLR,,0.00,WeatherDisplay:10.37,2013-06-08 10:32:00,
2013-06-08 03:37:00,59.1,55.2,29.73,NNW,338,1.1,0.0,87,0.00,CLR,,0.00,WeatherDisplay:10.37,2013-06-08 10:37:00,
2013-06-08 03:42:00,59.0,55.4,29.73,NNW,338,0.0,0.0,88,0.00,CLR,,0.00,WeatherDisplay:10.37,2013-06-08 10:42:00,
2013-06-08 03:47:00,59.0,55.4,29.73,NNW,339,0.0,0.0,88,0.00,CLR,,0.00,WeatherDisplay:10.37,2013-06-08 10:47:00,
2013-06-08 03:52:00,59.0,55.4,29.73,NNW,339,0.0,0.0,88,0.00,CLR,,0.00,WeatherDisplay:10.37,2013-06-08 10:52:00,
2013-06-08 03:57:00,59.0,55.8,29.73,NNW,339,0.0,0.0,89,0.00,CLR,,0.00,WeatherDisplay:10.37,2013-06-08 10:57:00,
2013-06-08 04:02:00,58.9,55.4,29.73,NNW,338,0.0,0.0,88,0.00,CLR,,0.00,WeatherDisplay:10.37,2013-06-08 11:02:00,
2013-06-08 04:07:00,58.5,55.0,29.73,NNW,339,0.0,0.0,88,0.00,CLR,,0.00,WeatherDisplay:10.37,2013-06-08 11:07:00,
2013-06-08 04:12:00,58.4,55.2,29.73,NNW,339,0.0,0.0,89,0.00,CLR,,0.00,WeatherDisplay:10.37,2013-06-08 11:12:00,
2013-06-08 04:17:00,58.3,55.1,29.73,NNW,338,0.0,0.0,89,0.00,CLR,,0.00,WeatherDisplay:10.37,2013-06-08 11:17:00,
2013-06-08 04:22:00,58.2,55.0,29.73,NNW,338,0.0,0.0,89,0.00,CLR,,0.00,WeatherDisplay:10.37,2013-06-08 11:22:00,
2013-06-08 04:27:00,58.2,55.3,29.73,NNW,338,0.0,0.0,90,0.00,CLR,,0.00,WeatherDisplay:10.37,2013-06-08 11:27:00,
2013-06-08 04:32:00,58.2,55.3,29.73,NNW,338,0.0,0.0,90,0.00,CLR,,0.00,WeatherDisplay:10.37,2013-06-08 11:32:00,
2013-06-08 04:37:00,58.3,55.4,29.73,NNW,338,0.0,0.0,90,0.00,CLR,,0.00,WeatherDisplay:10.37,2013-06-08 11:37:00,
2013-06-08 04:42:00,58.2,55.3,29.73,NNW,338,0.0,0.0,90,0.00,CLR,,0.00,WeatherDisplay:10.37,2013-06-08 11:42:00,
2013-06-08 04:47:00,58.0,55.1,29.73,NNW,339,0.0,0.0,90,0.00,CLR,,0.00,WeatherDisplay:10.37,2013-06-08 11:47:00,
2013-06-08 04:52:00,57.9,55.0,29.73,NNW,338,0.0,0.0,90,0.00,CLR,,0.00,WeatherDisplay:10.37,2013-06-08 11:52:00,
2013-06-08 04:57:00,58.0,55.4,29.73,NNW,339,0.0,0.1,91,0.00,CLR,,0.00,WeatherDisplay:10.37,2013-06-08 11:57:00,
2013-06-08 05:02:00,58.0,55.4,29.73,NNW,338,0.0,0.0,91,0.00,CLR,,0.00,WeatherDisplay:10.37,2013-06-08 12:02:00,
2013-06-08 05:07:00,58.0,55.4,29.73,NW,321,1.0,0.0,91,0.00,CLR,,0.00,WeatherDisplay:10.37,2013-06-08 12:07:00,
2013-06-08 05:12:00,58.1,55.2,29.73,SW,229,1.1,0.0,90,0.00,CLR,,0.00,WeatherDisplay:10.37,2013-06-08 12:12:00,
2013-06-08 05:17:00,58.1,55.2,29.73,SW,229,1.1,0.0,90,0.00,CLR,,0.00,WeatherDisplay:10.37,2013-06-08 12:17:00,
2013-06-08 05:22:00,57.9,54.7,29.73,SW,229,0.0,0.0,89,0.00,CLR,,0.00,WeatherDisplay:10.37,2013-06-08 12:22:00,
2013-06-08 05:27:00,56.9,53.1,29.73,SW,229,0.0,0.0,87,0.00,CLR,,0.00,WeatherDisplay:10.37,2013-06-08 12:27:00,
2013-06-08 05:32:00,56.3,53.1,29.73,SW,229,0.0,0.0,89,0.00,CLR,,0.00,WeatherDisplay:10.37,2013-06-08 12:32:00,
2013-06-08 05:37:00,56.2,53.3,29.73,SW,229,0.0,0.0,90,0.00,CLR,,0.00,WeatherDisplay:10.37,2013-06-08 12:37:00,
2013-06-08 05:42:00,56.6,54.0,29.73,SW,229,0.0,0.0,91,0.00,CLR,,0.00,WeatherDisplay:10.37,2013-06-08 12:42:00,
2013-06-08 05:47:00,56.8,54.2,29.73,SW,229,0.0,0.0,91,0.00,CLR,,0.00,WeatherDisplay:10.37,2013-06-08 12:47:00,
2013-06-08 05:52:00,56.9,54.3,29.73,SW,229,0.0,0.0,91,0.00,CLR,,0.00,WeatherDisplay:10.37,2013-06-08 12:52:00,
2013-06-08 05:57:00,56.4,53.2,29.73,SW,229,0.0,0.0,89,0.00,CLR,,0.00,WeatherDisplay:10.37,2013-06-08 12:57:00,
2013-06-08 06:02:00,56.3,53.4,29.74,SW,229,0.0,0.0,90,0.00,CLR,,0.00,WeatherDisplay:10.37,2013-06-08 13:02:00,
2013-06-08 06:07:00,56.4,53.8,29.74,SW,229,0.0,0.0,91,0.00,CLR,,0.00,WeatherDisplay:10.37,2013-06-08 13:07:00,
2013-06-08 06:12:00,56.4,53.8,29.74,SW,229,0.0,0.0,91,0.00,CLR,,0.00,WeatherDisplay:10.37,2013-06-08 13:12:00,
2013-06-08 06:17:00,56.4,53.8,29.74,SW,229,0.0,0.0,91,0.00,CLR,,0.00,WeatherDisplay:10.37,2013-06-08 13:17:00,
2013-06-08 06:22:00,56.5,53.9,29.74,SW,229,0.0,0.0,91,0.00,CLR,,0.00,WeatherDisplay:10.37,2013-06-08 13:22:00,
2013-06-08 06:27:00,56.6,54.0,29.74,SW,229,0.0,0.0,91,0.00,CLR,,0.00,WeatherDisplay:10.37,2013-06-08 13:27:00,
2013-06-08 06:32:00,57.5,55.2,29.74,SSW,198,1.1,0.0,92,0.00,CLR,,0.00,WeatherDisplay:10.37,2013-06-08 13:32:00,
2013-06-08 06:37:00,58.2,55.6,29.74,SSE,165,1.1,1.1,91,0.00,CLR,,0.00,WeatherDisplay:10.37,2013-06-08 13:37:00,
2013-06-08 06:42:00,58.6,55.7,29.74,South,170,1.1,1.1,90,0.00,CLR,,0.00,WeatherDisplay:10.37,2013-06-08 13:42:00,
2013-06-08 06:47:00,59.3,56.1,29.74,SW,220,1.1,1.1,89,0.00,CLR,,0.00,WeatherDisplay:10.37,2013-06-08 13:47:00,
2013-06-08 06:52:00,60.3,56.7,29.74,South,176,3.5,3.5,88,0.00,CLR,,0.00,WeatherDisplay:10.37,2013-06-08 13:52:00,
2013-06-08 06:57:00,61.3,57.1,29.74,SSW,200,2.3,2.3,86,0.00,CLR,,0.00,WeatherDisplay:10.37,2013-06-08 13:57:00,
2013-06-08 07:02:00,62.0,57.4,29.74,SSE,152,3.5,3.5,85,0.00,CLR,,0.00,WeatherDisplay:10.37,2013-06-08 14:02:00,
2013-06-08 07:07:00,62.4,57.5,29.74,SSE,161,3.5,3.5,84,0.00,CLR,,0.00,WeatherDisplay:10.37,2013-06-08 14:07:00,
2013-06-08 07:12:00,62.5,57.3,29.74,SSE,166,3.5,3.5,83,0.00,CLR,,0.00,WeatherDisplay:10.37,2013-06-08 14:12:00,
2013-06-08 07:17:00,62.9,57.7,29.74,SSW,193,1.1,1.1,83,0.00,CLR,,0.00,WeatherDisplay:10.37,2013-06-08 14:17:00,
2013-06-08 07:22:00,63.1,57.9,29.74,South,176,4.0,4.0,83,0.00,CLR,,0.00,WeatherDisplay:10.37,2013-06-08 14:22:00,
2013-06-08 07:27:00,63.2,57.6,29.74,South,186,4.6,4.6,82,0.00,CLR,,0.00,WeatherDisplay:10.37,2013-06-08 14:27:00,
2013-06-08 07:32:00,63.7,58.1,29.74,SE,146,2.3,2.3,82,0.00,CLR,,0.00,WeatherDisplay:10.37,2013-06-08 14:32:00,
2013-06-08 07:37:00,64.9,58.9,29.74,ESE,122,3.5,3.5,81,0.00,CLR,,0.00,WeatherDisplay:10.37,2013-06-08 14:37:00,
2013-06-08 07:42:00,65.5,58.8,29.74,SSE,167,3.5,3.5,79,0.00,CLR,,0.00,WeatherDisplay:10.37,2013-06-08 14:42:00,
2013-06-08 07:47:00,66.2,58.8,29.74,SSE,162,4.0,4.0,77,0.00,CLR,,0.00,WeatherDisplay:10.37,2013-06-08 14:47:00,
2013-06-08 07:52:00,66.2,58.4,29.75,SE,124,4.6,4.6,76,0.00,CLR,,0.00,WeatherDisplay:10.37,2013-06-08 14:52:00,
2013-06-08 07:57:00,66.6,59.2,29.74,SE,141,1.1,1.1,77,0.00,CLR,,0.00,WeatherDisplay:10.37,2013-06-08 14:57:00,
2013-06-08 08:02:00,66.8,59.0,29.74,SE,124,2.3,2.3,76,0.00,CLR,,0.00,WeatherDisplay:10.37,2013-06-08 15:02:00,
2013-06-08 08:07:00,66.7,59.3,29.74,SE,142,1.1,1.1,77,0.00,CLR,,0.00,WeatherDisplay:10.37,2013-06-08 15:07:00,
2013-06-08 08:12:00,66.8,59.0,29.74,ESE,120,2.0,2.0,76,0.00,CLR,,0.00,WeatherDisplay:10.37,2013-06-08 15:12:00,
2013-06-08 08:17:00,67.0,58.8,29.74,SSE,150,5.8,5.8,75,0.00,CLR,,0.00,WeatherDisplay:10.37,2013-06-08 15:17:00,
2013-06-08 08:23:00,67.5,59.3,29.74,SE,145,1.1,1.1,75,0.00,CLR,,0.00,WeatherDisplay:10.37,2013-06-08 15:23:00,
2013-06-08 08:28:00,68.3,59.7,29.74,SE,146,3.5,3.5,74,0.00,CLR,,0.00,WeatherDisplay:10.37,2013-06-08 15:28:00,
2013-06-08 08:33:00,68.7,59.7,29.74,SSE,158,3.5,3.5,73,0.00,CLR,,0.00,WeatherDisplay:10.37,2013-06-08 15:33:00,
2013-06-08 08:38:00,68.6,59.6,29.74,SE,143,3.5,3.5,73,0.00,CLR,,0.00,WeatherDisplay:10.37,2013-06-08 15:38:00,
2013-06-08 08:43:00,69.0,60.0,29.74,SSE,150,2.3,2.3,73,0.00,CLR,,0.00,WeatherDisplay:10.37,2013-06-08 15:43:00,
2013-06-08 08:48:00,69.2,59.8,29.74,SW,221,1.1,1.1,72,0.00,CLR,,0.00,WeatherDisplay:10.37,2013-06-08 15:48:00,
2013-06-08 08:53:00,69.4,60.0,29.74,SSE,151,3.5,3.5,72,0.00,CLR,,0.00,WeatherDisplay:10.37,2013-06-08 15:53:00,
2013-06-08 08:58:00,69.7,59.9,29.74,South,191,2.3,2.3,71,0.00,CLR,,0.00,WeatherDisplay:10.37,2013-06-08 15:58:00,
2013-06-08 09:03:00,70.1,60.3,29.74,SSE,158,4.6,4.6,71,0.00,CLR,,0.00,WeatherDisplay:10.37,2013-06-08 16:03:00,
2013-06-08 09:08:00,70.5,61.0,29.74,SSE,152,2.3,2.3,72,0.00,CLR,,0.00,WeatherDisplay:10.37,2013-06-08 16:08:00,
2013-06-08 09:13:00,71.1,60.8,29.74,SSE,167,5.0,5.0,70,0.00,CLR,,0.00,WeatherDisplay:10.37,2013-06-08 16:13:00,
2013-06-08 09:18:00,71.4,60.7,29.74,South,173,3.5,3.5,69,0.00,CLR,,0.00,WeatherDisplay:10.37,2013-06-08 16:18:00,
2013-06-08 09:23:00,71.7,61.0,29.74,ESE,117,2.3,2.3,69,0.00,CLR,,0.00,WeatherDisplay:10.37,2013-06-08 16:23:00,
2013-06-08 09:28:00,71.9,60.3,29.74,SSW,194,4.6,4.6,67,0.00,CLR,,0.00,WeatherDisplay:10.37,2013-06-08 16:28:00,
2013-06-08 09:33:00,72.4,60.4,29.74,ESE,109,2.3,2.3,66,0.00,CLR,,0.00,WeatherDisplay:10.37,2013-06-08 16:33:00,
2013-06-08 09:38:00,73.0,61.0,29.74,SSE,168,2.3,2.3,66,0.00,CLR,,0.00,WeatherDisplay:10.37,2013-06-08 16:38:00,
2013-06-08 09:43:00,73.5,61.4,29.74,SSE,154,2.3,2.3,66,0.00,CLR,,0.00,WeatherDisplay:10.37,2013-06-08 16:43:00,
2013-06-08 09:48:00,74.0,61.0,29.74,SSE,165,4.6,4.6,64,0.00,CLR,,0.00,WeatherDisplay:10.37,2013-06-08 16:48:00,
2013-06-08 09:53:00,74.1,60.7,29.74,SSE,161,5.8,5.8,63,0.00,CLR,,0.00,WeatherDisplay:10.37,2013-06-08 16:53:00,
2013-06-08 09:58:00,74.2,60.3,29.74,SSE,154,6.9,6.9,62,0.00,CLR,,0.00,WeatherDisplay:10.37,2013-06-08 16:58:00,
2013-06-08 10:03:00,74.6,60.7,29.73,SE,138,6.9,6.9,62,0.00,CLR,,0.00,WeatherDisplay:10.37,2013-06-08 17:03:00,
2013-06-08 10:08:00,75.1,60.7,29.73,South,190,5.8,5.8,61,0.00,CLR,,0.00,WeatherDisplay:10.37,2013-06-08 17:08:00,
2013-06-08 10:13:00,75.7,61.3,29.73,SSE,166,3.5,3.5,61,0.00,CLR,,0.00,WeatherDisplay:10.37,2013-06-08 17:13:00,
2013-06-08 10:18:00,76.4,61.0,29.73,SSE,155,3.5,3.5,59,0.00,CLR,,0.00,WeatherDisplay:10.37,2013-06-08 17:18:00,
2013-06-08 10:23:00,76.6,61.2,29.73,South,173,5.0,5.0,59,0.00,CLR,,0.00,WeatherDisplay:10.37,2013-06-08 17:23:00,
2013-06-08 10:28:00,77.0,61.1,29.72,SW,222,3.5,3.5,58,0.00,CLR,,0.00,WeatherDisplay:10.37,2013-06-08 17:28:00,
2013-06-08 10:33:00,77.6,61.2,29.72,South,180,5.0,5.0,57,0.00,CLR,,0.00,WeatherDisplay:10.37,2013-06-08 17:33:00,
2013-06-08 10:38:00,77.8,61.3,29.73,SSE,166,2.3,2.3,57,0.00,CLR,,0.00,WeatherDisplay:10.37,2013-06-08 17:38:00,
2013-06-08 10:43:00,78.4,61.4,29.73,SSE,163,3.5,3.5,56,0.00,CLR,,0.00,WeatherDisplay:10.37,2013-06-08 17:43:00,
2013-06-08 10:48:00,78.9,61.9,29.72,SSE,161,3.5,3.5,56,0.00,CLR,,0.00,WeatherDisplay:10.37,2013-06-08 17:48:00,
2013-06-08 10:53:00,79.5,60.9,29.73,SSE,147,5.8,5.8,53,0.00,CLR,,0.00,WeatherDisplay:10.37,2013-06-08 17:53:00,
2013-06-08 10:58:00,80.1,60.9,29.72,SSE,147,8.1,8.1,52,0.00,CLR,,0.00,WeatherDisplay:10.37,2013-06-08 17:58:00,
2013-06-08 11:03:00,80.6,60.8,29.72,SE,143,5.8,5.8,51,0.00,CLR,,0.00,WeatherDisplay:10.37,2013-06-08 18:03:00,
2013-06-08 11:08:00,81.3,62.0,29.72,SSE,167,8.1,8.1,52,0.00,CLR,,0.00,WeatherDisplay:10.37,2013-06-08 18:08:00,
2013-06-08 11:13:00,81.8,61.3,29.72,SSW,210,6.9,6.9,50,0.00,CLR,,0.00,WeatherDisplay:10.37,2013-06-08 18:13:00,
2013-06-08 11:18:00,82.7,62.2,29.72,ESE,122,4.6,4.6,50,0.00,CLR,,0.00,WeatherDisplay:10.37,2013-06-08 18:18:00,
2013-06-08 11:23:00,83.4,62.2,29.72,SE,134,8.1,8.1,49,0.00,CLR,,0.00,WeatherDisplay:10.37,2013-06-08 18:23:00,
2013-06-08 11:28:00,83.9,62.7,29.72,South,187,7.0,7.0,49,0.00,CLR,,0.00,WeatherDisplay:10.37,2013-06-08 18:28:00,
2013-06-08 11:33:00,84.5,63.2,29.72,SSE,149,6.0,6.0,49,0.00,CLR,,0.00,WeatherDisplay:10.37,2013-06-08 18:33:00,
2013-06-08 11:38:00,84.8,62.9,29.72,SE,145,8.1,8.1,48,0.00,CLR,,0.00,WeatherDisplay:10.37,2013-06-08 18:38:00,
2013-06-08 11:43:00,85.1,63.8,29.72,South,190,5.8,5.8,49,0.00,CLR,,0.00,WeatherDisplay:10.37,2013-06-08 18:43:00,
2013-06-08 11:48:00,85.5,63.0,29.72,SE,142,9.2,9.2,47,0.00,CLR,,0.00,WeatherDisplay:10.37,2013-06-08 18:48:00,
2013-06-08 11:53:00,85.6,63.1,29.72,SE,143,9.2,9.2,47,0.00,CLR,,0.00,WeatherDisplay:10.37,2013-06-08 18:53:00,
2013-06-08 11:58:00,85.9,63.3,29.71,SE,128,3.5,3.5,47,0.00,CLR,,0.00,WeatherDisplay:10.37,2013-06-08 18:58:00,
2013-06-08 12:03:00,86.2,63.0,29.71,South,180,6.9,6.9,46,0.00,CLR,,0.00,WeatherDisplay:10.37,2013-06-08 19:03:00,
2013-06-08 12:08:00,87.2,63.3,29.71,SE,127,5.8,5.8,45,0.00,CLR,,0.00,WeatherDisplay:10.37,2013-06-08 19:08:00,
2013-06-08 12:13:00,87.5,62.2,29.71,South,191,11.5,11.5,43,0.00,CLR,,0.00,WeatherDisplay:10.37,2013-06-08 19:13:00,
2013-06-08 12:18:00,87.4,62.2,29.71,SSW,195,9.2,9.2,43,0.00,CLR,,0.00,WeatherDisplay:10.37,2013-06-08 19:18:00,
2013-06-08 12:23:00,88.0,62.7,29.70,SSE,163,8.1,8.1,43,0.00,CLR,,0.00,WeatherDisplay:10.37,2013-06-08 19:23:00,
2013-06-08 12:28:00,88.2,62.9,29.70,South,189,5.8,5.8,43,0.00,CLR,,0.00,WeatherDisplay:10.37,2013-06-08 19:28:00,
2013-06-08 12:33:00,88.8,62.7,29.70,SSE,160,5.8,5.8,42,0.00,CLR,,0.00,WeatherDisplay:10.37,2013-06-08 19:33:00,
2013-06-08 12:38:00,89.2,63.8,29.70,SE,143,9.2,9.2,43,0.00,CLR,,0.00,WeatherDisplay:10.37,2013-06-08 19:38:00,
2013-06-08 12:43:00,89.8,63.6,29.70,SE,139,6.9,6.9,42,0.00,CLR,,0.00,WeatherDisplay:10.37,2013-06-08 19:43:00,
2013-06-08 12:48:00,90.6,63.7,29.70,ESE,122,8.1,8.1,41,0.00,CLR,,0.00,WeatherDisplay:10.37,2013-06-08 19:48:00,
2013-06-08 12:53:00,90.8,64.5,29.70,South,174,4.6,4.6,42,0.00,CLR,,0.00,WeatherDisplay:10.37,2013-06-08 19:53:00,
2013-06-08 12:58:00,91.0,64.0,29.70,SSE,165,9.2,9.2,41,0.00,CLR,,0.00,WeatherDisplay:10.37,2013-06-08 19:58:00,
2013-06-08 13:03:00,91.6,64.6,29.69,SE,138,3.5,3.5,41,0.00,CLR,,0.00,WeatherDisplay:10.37,2013-06-08 20:03:00,
2013-06-08 13:08:00,92.3,64.5,29.69,SE,138,3.5,3.5,40,0.00,CLR,,0.00,WeatherDisplay:10.37,2013-06-08 20:08:00,
2013-06-08 13:13:00,92.4,66.0,29.69,SE,134,5.8,5.8,42,0.00,CLR,,0.00,WeatherDisplay:10.37,2013-06-08 20:13:00,
2013-06-08 13:18:00,92.6,64.8,29.69,SE,142,5.8,5.8,40,0.00,CLR,,0.00,WeatherDisplay:10.37,2013-06-08 20:18:00,
2013-06-08 13:23:00,93.1,65.2,29.69,ESE,119,10.4,10.4,40,0.00,CLR,,0.00,WeatherDisplay:10.37,2013-06-08 20:23:00,
2013-06-08 13:28:00,92.8,64.2,29.69,SSE,148,5.8,5.8,39,0.00,CLR,,0.00,WeatherDisplay:10.37,2013-06-08 20:28:00,
2013-06-08 13:33:00,93.4,65.5,29.69,ESE,123,5.8,5.8,40,0.00,CLR,,0.00,WeatherDisplay:10.37,2013-06-08 20:33:00,
2013-06-08 13:38:00,93.5,64.8,29.69,South,173,10.4,10.4,39,0.00,CLR,,0.00,WeatherDisplay:10.37,2013-06-08 20:38:00,
2013-06-08 13:43:00,93.4,66.2,29.69,ESE,105,5.8,5.8,41,0.00,CLR,,0.00,WeatherDisplay:10.37,2013-06-08 20:43:00,
2013-06-08 13:48:00,93.8,65.8,29.69,SSW,206,11.5,11.5,40,0.00,CLR,,0.00,WeatherDisplay:10.37,2013-06-08 20:48:00,
2013-06-08 13:53:00,94.0,66.0,29.68,SE,136,4.6,4.6,40,0.00,CLR,,0.00,WeatherDisplay:10.37,2013-06-08 20:53:00,
2013-06-08 13:58:00,94.0,66.0,29.68,SSE,163,9.2,9.2,40,0.00,CLR,,0.00,WeatherDisplay:10.37,2013-06-08 20:58:00,
2013-06-08 14:03:00,94.1,66.1,29.68,SSE,163,10.4,10.4,40,0.00,CLR,,0.00,WeatherDisplay:10.37,2013-06-08 21:03:00,
2013-06-08 14:08:00,93.7,66.4,29.68,South,175,8.1,8.1,41,0.00,CLR,,0.00,WeatherDisplay:10.37,2013-06-08 21:08:00,
2013-06-08 14:13:00,93.6,66.4,29.68,SE,138,10.4,10.4,41,0.00,CLR,,0.00,WeatherDisplay:10.37,2013-06-08 21:13:00,
2013-06-08 14:18:00,93.7,65.0,29.68,SE,134,12.7,12.7,39,0.00,CLR,,0.00,WeatherDisplay:10.37,2013-06-08 21:18:00,
2013-06-08 14:23:00,93.4,65.5,29.68,SE,142,11.5,11.5,40,0.00,CLR,,0.00,WeatherDisplay:10.37,2013-06-08 21:23:00,
2013-06-08 14:28:00,93.0,65.1,29.67,South,169,11.5,11.5,40,0.00,CLR,,0.00,WeatherDisplay:10.37,2013-06-08 21:28:00,
2013-06-08 14:33:00,93.1,65.9,29.68,South,171,8.1,8.1,41,0.00,CLR,,0.00,WeatherDisplay:10.37,2013-06-08 21:33:00,
2013-06-08 14:38:00,93.9,65.2,29.67,SW,223,10.4,10.4,39,0.00,CLR,,0.00,WeatherDisplay:10.37,2013-06-08 21:38:00,
2013-06-08 14:43:00,94.7,65.1,29.67,South,183,11.0,11.0,38,0.00,CLR,,0.00,WeatherDisplay:10.37,2013-06-08 21:43:00,
2013-06-08 14:48:00,94.6,64.3,29.67,SSE,156,11.5,11.5,37,0.00,CLR,,0.00,WeatherDisplay:10.37,2013-06-08 21:48:00,
2013-06-08 14:53:00,93.7,65.0,29.67,SSE,167,13.0,13.0,39,0.00,CLR,,0.00,WeatherDisplay:10.37,2013-06-08 21:53:00,
2013-06-08 14:58:00,93.6,64.9,29.67,SSE,152,11.5,11.5,39,0.00,CLR,,0.00,WeatherDisplay:10.37,2013-06-08 21:58:00,
2013-06-08 15:03:00,93.0,64.4,29.67,SSE,148,17.3,17.3,39,0.00,CLR,,0.00,WeatherDisplay:10.37,2013-06-08 22:03:00,
2013-06-08 15:08:00,93.3,64.7,29.67,SSE,150,11.5,11.5,39,0.00,CLR,,0.00,WeatherDisplay:10.37,2013-06-08 22:08:00,
2013-06-08 15:13:00,93.2,63.8,29.67,South,174,8.1,8.1,38,0.00,CLR,,0.00,WeatherDisplay:10.37,2013-06-08 22:13:00,
2013-06-08 15:18:00,92.2,64.4,29.67,SE,143,8.1,8.1,40,0.00,CLR,,0.00,WeatherDisplay:10.37,2013-06-08 22:18:00,
2013-06-08 15:23:00,91.6,63.9,29.67,ESE,111,13.8,13.8,40,0.00,CLR,,0.00,WeatherDisplay:10.37,2013-06-08 22:23:00,
2013-06-08 15:28:00,91.0,64.0,29.68,SE,141,5.8,5.8,41,0.00,CLR,,0.00,WeatherDisplay:10.37,2013-06-08 22:28:00,
2013-06-08 15:33:00,90.2,63.3,29.68,SE,125,11.5,11.5,41,0.00,CLR,,0.00,WeatherDisplay:10.37,2013-06-08 22:33:00,
2013-06-08 15:38:00,89.6,62.8,29.67,SSW,199,9.2,9.2,41,0.00,CLR,,0.00,WeatherDisplay:10.37,2013-06-08 22:38:00,
2013-06-08 15:43:00,89.0,63.6,29.67,SE,129,5.8,5.8,43,0.00,CLR,,0.00,WeatherDisplay:10.37,2013-06-08 22:43:00,
2013-06-08 15:48:00,88.4,62.4,29.68,SSE,152,10.4,10.4,42,0.00,CLR,,0.00,WeatherDisplay:10.37,2013-06-08 22:48:00,
2013-06-08 15:53:00,87.9,63.3,29.68,South,181,12.0,12.0,44,0.00,CLR,,0.00,WeatherDisplay:10.37,2013-06-08 22:53:00,
2013-06-08 15:58:00,87.0,63.1,29.68,SSE,148,4.6,4.6,45,0.00,CLR,,0.00,WeatherDisplay:10.37,2013-06-08 22:58:00,
2013-06-08 16:03:00,86.2,62.4,29.67,SSE,156,11.5,11.5,45,0.00,CLR,,0.00,WeatherDisplay:10.37,2013-06-08 23:03:00,
2013-06-08 16:08:00,85.8,62.6,29.68,SE,141,12.7,12.7,46,0.00,CLR,,0.00,WeatherDisplay:10.37,2013-06-08 23:08:00,
2013-06-08 16:13:00,85.2,62.7,29.68,SSE,165,15.0,15.0,47,0.00,CLR,,0.00,WeatherDisplay:10.37,2013-06-08 23:13:00,
2013-06-08 16:18:00,84.7,62.2,29.68,SSE,158,9.2,9.2,47,0.00,CLR,,0.00,WeatherDisplay:10.37,2013-06-08 23:18:00,
2013-06-08 16:23:00,84.0,61.6,29.68,SE,135,11.5,11.5,47,0.00,CLR,,0.00,WeatherDisplay:10.37,2013-06-08 23:23:00,
2013-06-08 16:28:00,83.4,61.7,29.68,SW,221,8.1,8.1,48,0.00,CLR,,0.00,WeatherDisplay:10.37,2013-06-08 23:28:00,
2013-06-08 16:33:00,83.2,61.5,29.68,SSW,194,13.8,13.8,48,0.00,CLR,,0.00,WeatherDisplay:10.37,2013-06-08 23:33:00,
2013-06-08 16:38:00,83.0,61.9,29.68,SE,129,6.9,6.9,49,0.00,CLR,,0.00,WeatherDisplay:10.37,2013-06-08 23:38:00,
2013-06-08 16:43:00,82.8,61.1,29.68,South,169,11.5,11.5,48,0.00,CLR,,0.00,WeatherDisplay:10.37,2013-06-08 23:43:00,
2013-06-08 16:48:00,82.3,61.8,29.68,SSE,155,11.5,11.5,50,0.00,CLR,,0.00,WeatherDisplay:10.37,2013-06-08 23:48:00,
2013-06-08 16:53:00,82.2,61.7,29.68,South,181,11.5,11.5,50,0.00,CLR,,0.00,WeatherDisplay:10.37,2013-06-08 23:53:00,
2013-06-08 16:58:00,81.9,61.4,29.68,SSW,204,15.0,15.0,50,0.00,CLR,,0.00,WeatherDisplay:10.37,2013-06-08 23:58:00,
2013-06-08 17:03:00,81.5,61.6,29.69,SSE,154,12.7,12.7,51,0.00,CLR,,0.00,WeatherDisplay:10.37,2013-06-09 00:03:00,
2013-06-08 17:08:00,81.0,61.2,29.69,SE,134,10.0,10.0,51,0.00,CLR,,0.00,WeatherDisplay:10.37,2013-06-09 00:08:00,
2013-06-08 17:13:00,81.0,61.2,29.69,SE,144,13.8,13.8,51,0.00,CLR,,0.00,WeatherDisplay:10.37,2013-06-09 00:13:00,
2013-06-08 17:18:00,80.6,61.3,29.69,SE,131,10.4,10.4,52,0.00,CLR,,0.00,WeatherDisplay:10.37,2013-06-09 00:18:00,
2013-06-08 17:23:00,80.5,61.3,29.69,SSW,198,10.4,10.4,52,0.00,CLR,,0.00,WeatherDisplay:10.37,2013-06-09 00:23:00,
2013-06-08 17:28:00,80.1,61.4,29.69,SE,131,10.4,10.4,53,0.00,CLR,,0.00,WeatherDisplay:10.37,2013-06-09 00:28:00,
2013-06-08 17:33:00,79.5,60.9,29.69,South,172,15.0,15.0,53,0.00,CLR,,0.00,WeatherDisplay:10.37,2013-06-09 00:33:00,
2013-06-08 17:38:00,78.9,61.4,29.69,SSE,153,12.7,12.7,55,0.00,CLR,,0.00,WeatherDisplay:10.37,2013-06-09 00:38:00,
2013-06-08 17:43:00,78.6,61.1,29.69,SSE,147,6.9,6.9,55,0.00,CLR,,0.00,WeatherDisplay:10.37,2013-06-09 00:43:00,
2013-06-08 17:48:00,78.2,61.2,29.69,SSE,158,11.5,11.5,56,0.00,CLR,,0.00,WeatherDisplay:10.37,2013-06-09 00:48:00,
2013-06-08 17:53:00,77.6,60.7,29.69,SSE,153,10.4,10.4,56,0.00,CLR,,0.00,WeatherDisplay:10.37,2013-06-09 00:53:00,
2013-06-08 17:58:00,77.2,60.8,29.70,SSE,152,8.1,8.1,57,0.00,CLR,,0.00,WeatherDisplay:10.37,2013-06-09 00:58:00,
2013-06-08 18:03:00,77.1,60.7,29.70,SE,138,9.2,9.2,57,0.00,CLR,,0.00,WeatherDisplay:10.37,2013-06-09 01:03:00,
2013-06-08 18:08:00,76.5,60.6,29.70,SSE,159,11.5,11.5,58,0.00,CLR,,0.00,WeatherDisplay:10.37,2013-06-09 01:08:00,
2013-06-08 18:13:00,75.9,60.5,29.70,South,172,11.5,11.5,59,0.00,CLR,,0.00,WeatherDisplay:10.37,2013-06-09 01:13:00,
2013-06-08 18:18:00,75.4,60.5,29.70,SSE,150,10.0,10.0,60,0.00,CLR,,0.00,WeatherDisplay:10.37,2013-06-09 01:18:00,
2013-06-08 18:23:00,75.2,60.8,29.70,SSE,152,9.2,9.2,61,0.00,CLR,,0.00,WeatherDisplay:10.37,2013-06-09 01:23:00,
2013-06-08 18:28:00,74.4,60.1,29.70,South,173,8.0,8.0,61,0.00,CLR,,0.00,WeatherDisplay:10.37,2013-06-09 01:28:00,
2013-06-08 18:33:00,73.6,60.2,29.71,SSE,158,10.4,10.4,63,0.00,CLR,,0.00,WeatherDisplay:10.37,2013-06-09 01:33:00,
2013-06-08 18:38:00,73.2,59.8,29.71,South,172,11.5,11.5,63,0.00,CLR,,0.00,WeatherDisplay:10.37,2013-06-09 01:38:00,
2013-06-08 18:43:00,72.5,59.6,29.71,SSE,167,11.5,11.5,64,0.00,CLR,,0.00,WeatherDisplay:10.37,2013-06-09 01:43:00,
2013-06-08 18:48:00,72.3,59.4,29.71,South,181,10.4,10.4,64,0.00,CLR,,0.00,WeatherDisplay:10.37,2013-06-09 01:48:00,
2013-06-08 18:53:00,71.9,59.5,29.72,SE,129,9.2,9.2,65,0.00,CLR,,0.00,WeatherDisplay:10.37,2013-06-09 01:53:00,
2013-06-08 18:58:00,71.7,59.3,29.72,SE,131,5.8,5.8,65,0.00,CLR,,0.00,WeatherDisplay:10.37,2013-06-09 01:58:00,
2013-06-08 19:03:00,71.5,59.1,29.72,South,176,6.0,6.0,65,0.00,CLR,,0.00,WeatherDisplay:10.37,2013-06-09 02:03:00,
2013-06-08 19:08:00,71.5,59.5,29.72,SE,133,4.6,4.6,66,0.00,CLR,,0.00,WeatherDisplay:10.37,2013-06-09 02:08:00,
2013-06-08 19:13:00,71.2,59.3,29.72,South,176,6.9,6.9,66,0.00,CLR,,0.00,WeatherDisplay:10.37,2013-06-09 02:13:00,
2013-06-08 19:18:00,70.5,59.0,29.72,South,176,8.0,8.0,67,0.00,CLR,,0.00,WeatherDisplay:10.37,2013-06-09 02:18:00,
2013-06-08 19:23:00,70.1,58.6,29.73,South,174,11.5,11.5,67,0.00,CLR,,0.00,WeatherDisplay:10.37,2013-06-09 02:23:00,
2013-06-08 19:28:00,69.7,59.1,29.73,SE,141,11.0,11.0,69,0.00,CLR,,0.00,WeatherDisplay:10.37,2013-06-09 02:28:00,
2013-06-08 19:33:00,69.4,58.8,29.73,South,172,8.0,8.0,69,0.00,CLR,,0.00,WeatherDisplay:10.37,2013-06-09 02:33:00,
2013-06-08 19:38:00,69.1,58.9,29.73,SE,128,6.9,6.9,70,0.00,CLR,,0.00,WeatherDisplay:10.37,2013-06-09 02:38:00,
2013-06-08 19:43:00,68.9,58.7,29.73,SE,139,9.2,9.2,70,0.00,CLR,,0.00,WeatherDisplay:10.37,2013-06-09 02:43:00,
2013-06-08 19:48:00,68.5,58.3,29.73,SE,131,9.2,9.2,70,0.00,CLR,,0.00,WeatherDisplay:10.37,2013-06-09 02:48:00,
2013-06-08 19:53:00,68.1,58.3,29.73,SSE,163,10.0,10.0,71,0.00,CLR,,0.00,WeatherDisplay:10.37,2013-06-09 02:53:00,
2013-06-08 19:58:00,67.9,58.1,29.74,SSE,155,5.8,5.8,71,0.00,CLR,,0.00,WeatherDisplay:10.37,2013-06-09 02:58:00,
2013-06-08 20:03:00,67.7,58.0,29.74,SSE,160,9.2,9.2,71,0.00,CLR,,0.00,WeatherDisplay:10.37,2013-06-09 03:03:00,
2013-06-08 20:08:00,67.3,57.6,29.74,South,173,9.2,9.2,71,0.00,CLR,,0.00,WeatherDisplay:10.37,2013-06-09 03:08:00,
2013-06-08 20:13:00,66.5,57.6,29.74,South,177,10.4,10.4,73,0.00,CLR,,0.00,WeatherDisplay:10.37,2013-06-09 03:13:00,
2013-06-08 20:18:00,66.0,57.8,29.74,SSE,155,4.6,4.6,75,0.00,CLR,,0.00,WeatherDisplay:10.37,2013-06-09 03:18:00,
2013-06-08 20:23:00,65.7,57.9,29.74,ESE,105,9.2,9.2,76,0.00,CLR,,0.00,WeatherDisplay:10.37,2013-06-09 03:23:00,
2013-06-08 20:28:00,65.5,57.7,29.75,SSE,151,5.8,5.8,76,0.00,CLR,,0.00,WeatherDisplay:10.37,2013-06-09 03:28:00,
2013-06-08 20:33:00,65.3,57.5,29.75,South,177,6.9,6.9,76,0.00,CLR,,0.00,WeatherDisplay:10.37,2013-06-09 03:33:00,
2013-06-08 20:38:00,65.1,57.7,29.75,South,185,5.0,5.0,77,0.00,CLR,,0.00,WeatherDisplay:10.37,2013-06-09 03:38:00,
2013-06-08 20:43:00,64.9,57.5,29.75,South,186,4.6,4.6,77,0.00,CLR,,0.00,WeatherDisplay:10.37,2013-06-09 03:43:00,
2013-06-08 20:48:00,64.9,57.5,29.75,SSW,210,4.6,4.6,77,0.00,CLR,,0.00,WeatherDisplay:10.37,2013-06-09 03:48:00,
2013-06-08 20:53:00,64.7,57.7,29.75,SSW,195,5.8,5.8,78,0.00,CLR,,0.00,WeatherDisplay:10.37,2013-06-09 03:53:00,
2013-06-08 20:58:00,64.5,57.5,29.75,SSW,194,4.6,4.6,78,0.00,CLR,,0.00,WeatherDisplay:10.37,2013-06-09 03:58:00,
2013-06-08 21:01:00,64.4,57.4,29.75,SSW,207,3.5,3.5,78,0.00,CLR,,0.00,WeatherDisplay:10.37,2013-06-09 04:01:00,
2013-06-08 21:02:00,64.4,57.4,29.75,South,187,3.5,3.5,78,0.00,CLR,,0.00,WeatherDisplay:10.37,2013-06-09 04:02:00,
2013-06-08 21:05:00,64.4,57.7,29.76,SSE,156,4.0,4.0,79,0.00,CLR,,0.00,WeatherDisplay:10.37,2013-06-09 04:05:00,
2013-06-08 21:06:00,64.4,57.7,29.76,SSW,201,4.0,4.0,79,0.00,CLR,,0.00,WeatherDisplay:10.37,2013-06-09 04:06:00,
2013-06-08 21:11:00,64.4,57.7,29.76,SW,215,5.8,5.8,79,0.00,CLR,,0.00,WeatherDisplay:10.37,2013-06-09 04:11:00,
2013-06-08 21:16:00,64.3,57.6,29.76,WSW,242,3.5,3.5,79,0.00,CLR,,0.00,WeatherDisplay:10.37,2013-06-09 04:16:00,
2013-06-08 21:21:00,64.3,57.6,29.76,SSE,166,3.5,3.5,79,0.00,CLR,,0.00,WeatherDisplay:10.37,2013-06-09 04:21:00,
2013-06-08 21:27:00,64.3,57.6,29.77,SSW,212,3.5,3.5,79,0.00,CLR,,0.00,WeatherDisplay:10.37,2013-06-09 04:27:00,
2013-06-08 21:32:00,64.2,57.5,29.76,WSW,246,2.3,2.3,79,0.00,CLR,,0.00,WeatherDisplay:10.37,2013-06-09 04:32:00,
2013-06-08 21:37:00,64.2,57.5,29.77,South,172,2.3,2.3,79,0.00,CLR,,0.00,WeatherDisplay:10.37,2013-06-09 04:37:00,
2013-06-08 21:42:00,64.2,57.5,29.77,WSW,252,1.1,0.0,79,0.00,CLR,,0.00,WeatherDisplay:10.37,2013-06-09 04:42:00,
2013-06-08 21:47:00,64.2,57.5,29.78,SW,220,2.3,2.3,79,0.00,CLR,,0.00,WeatherDisplay:10.37,2013-06-09 04:47:00,
2013-06-08 21:52:00,64.1,57.5,29.78,WSW,252,1.1,1.1,79,0.00,CLR,,0.00,WeatherDisplay:10.37,2013-06-09 04:52:00,
2013-06-08 21:57:00,63.9,57.6,29.78,SW,226,1.0,1.0,80,0.00,CLR,,0.00,WeatherDisplay:10.37,2013-06-09 04:57:00,
2013-06-08 22:02:00,63.8,57.5,29.78,SW,224,1.1,0.0,80,0.00,CLR,,0.00,WeatherDisplay:10.37,2013-06-09 05:02:00,
2013-06-08 22:07:00,63.5,57.2,29.78,SW,225,0.0,0.0,80,0.00,CLR,,0.00,WeatherDisplay:10.37,2013-06-09 05:07:00,
2013-06-08 22:12:00,63.1,57.2,29.78,SW,225,0.0,0.0,81,0.00,CLR,,0.00,WeatherDisplay:10.37,2013-06-09 05:12:00,
2013-06-08 22:17:00,62.9,57.3,29.79,SW,225,0.0,0.0,82,0.00,CLR,,0.00,WeatherDisplay:10.37,2013-06-09 05:17:00,
2013-06-08 22:22:00,62.6,57.0,29.79,SW,225,0.0,0.0,82,0.00,CLR,,0.00,WeatherDisplay:10.37,2013-06-09 05:22:00,
2013-06-08 22:27:00,62.6,57.0,29.79,SW,225,1.1,1.1,82,0.00,CLR,,0.00,WeatherDisplay:10.37,2013-06-09 05:27:00,
2013-06-08 22:32:00,62.6,56.7,29.79,SW,225,1.1,1.1,81,0.00,CLR,,0.00,WeatherDisplay:10.37,2013-06-09 05:32:00,
2013-06-08 22:37:00,62.2,56.6,29.79,SW,225,1.1,1.1,82,0.00,CLR,,0.00,WeatherDisplay:10.37,2013-06-09 05:37:00,
2013-06-08 22:42:00,62.1,56.9,29.79,NW,319,1.1,1.1,83,0.00,CLR,,0.00,WeatherDisplay:10.37,2013-06-09 05:42:00,
2013-06-08 22:47:00,62.0,56.4,29.79,NNW,329,2.0,2.0,82,0.00,CLR,,0.00,WeatherDisplay:10.37,2013-06-09 05:47:00,
2013-06-08 22:52:00,61.9,56.7,29.79,NW,323,2.3,2.3,83,0.00,CLR,,0.00,WeatherDisplay:10.37,2013-06-09 05:52:00,
2013-06-08 22:57:00,61.9,56.7,29.79,NW,323,0.0,0.0,83,0.00,CLR,,0.00,WeatherDisplay:10.37,2013-06-09 05:57:00,
2013-06-08 23:02:00,61.8,56.6,29.79,NW,323,0.0,0.0,83,0.00,CLR,,0.00,WeatherDisplay:10.37,2013-06-09 06:02:00,
2013-06-08 23:07:00,61.8,56.6,29.79,NW,323,0.0,0.0,83,0.00,CLR,,0.00,WeatherDisplay:10.37,2013-06-09 06:07:00,
2013-06-08 23:12:00,61.5,56.3,29.79,NW,323,0.0,0.0,83,0.00,CLR,,0.00,WeatherDisplay:10.37,2013-06-09 06:12:00,
2013-06-08 23:17:00,61.2,56.3,29.80,NW,323,0.0,0.0,84,0.00,CLR,,0.00,WeatherDisplay:10.37,2013-06-09 06:17:00,
2013-06-08 23:22:00,60.9,56.4,29.80,NW,323,0.0,0.0,85,0.00,CLR,,0.00,WeatherDisplay:10.37,2013-06-09 06:22:00,
2013-06-08 23:27:00,60.8,56.6,29.80,NW,323,0.0,0.0,86,0.00,CLR,,0.00,WeatherDisplay:10.37,2013-06-09 06:27:00,
2013-06-08 23:32:00,60.7,56.5,29.80,NW,323,0.0,0.0,86,0.00,CLR,,0.00,WeatherDisplay:10.37,2013-06-09 06:32:00,
2013-06-08 23:37:00,60.5,56.3,29.80,NW,323,0.0,0.0,86,0.00,CLR,,0.00,WeatherDisplay:10.37,2013-06-09 06:37:00,
2013-06-08 23:42:00,60.6,56.7,29.80,NW,323,0.0,0.0,87,0.00,CLR,,0.00,WeatherDisplay:10.37,2013-06-09 06:42:00,
2013-06-08 23:47:00,61.0,56.8,29.80,NW,316,0.0,0.0,86,0.00,CLR,,0.00,WeatherDisplay:10.37,2013-06-09 06:47:00,
2013-06-08 23:52:00,60.9,55.7,29.80,NW,318,1.1,1.1,83,0.00,CLR,,0.00,WeatherDisplay:10.37,2013-06-09 06:52:00,
2013-06-08 23:57:00,60.3,55.8,29.81,NW,318,1.1,1.1,85,0.00,CLR,,0.00,WeatherDisplay:10.37,2013-06-09 06:57:00,